»·PEaware :: FFT571 KDEN-KSLC

FFT571 :: KDEN-KSLC

FLIGHT INFORMATION

Flight Status: Arrived
Operator:
Frontier Airlines
More flights by this operator :: More flights under this callsign
Pilot: John C. (18682)
Aircraft: AIRBUS A320
(A320)
More flights by this aircraft type
Origin: KDEN Denver Intl
United States
Destination: KSLC Salt Lake City Intl
United States
More flights between these airports :: More routes between these airports
Route: +FOOOT3 RLG EKR LEEHY5
File this flight plan on PilotEdge
Remarks:
Altitude:
(Current/Filed)
36,000ft
Speed:
(Current/Filed)
440kts
Departed: 22-Apr-18 04:51 PM
Arrived: 22-Apr-18 06:04 PM
Distance/Time
Traveled:
339nm/1:13
Distance/Time
To Go:
Arrived

Flight Plot

Page will automatically refresh every two minutes.

Flight plan parsing failed; only flown route is shown


Map Options




Map Legend


Flown Route
Filed Route
Departure Airport
Arrival Airport
Navaid (VOR, NDB)
Fix

Horizontal Profiles

Position Reports

Time Latitude Longitude Heading Altitude Ground
Speed
22-Apr-18 16:23 39.853365 -104.671398 0 5443ft 0kts
22-Apr-18 16:24 39.853365 -104.671398 0 5443ft 0kts
22-Apr-18 16:25 39.853365 -104.671398 0 5443ft 0kts
22-Apr-18 16:26 39.853365 -104.671398 0 5443ft 0kts
22-Apr-18 16:27 39.853365 -104.671398 0 5443ft 0kts
22-Apr-18 16:28 39.853365 -104.671398 0 5443ft 0kts
22-Apr-18 16:29 39.853365 -104.671398 0 5443ft 0kts
22-Apr-18 16:30 39.853365 -104.671398 0 5443ft 0kts
22-Apr-18 16:31 39.853365 -104.671398 0 5443ft 0kts
22-Apr-18 16:32 39.853365 -104.671398 0 5443ft 0kts
22-Apr-18 16:33 39.853365 -104.671398 0 5443ft 0kts
22-Apr-18 16:34 39.853365 -104.671398 0 5443ft 0kts
22-Apr-18 16:35 39.853365 -104.671398 0 5443ft 0kts
22-Apr-18 16:36 39.853365 -104.671398 0 5443ft 0kts
22-Apr-18 16:37 39.853176 -104.671399 359 5443ft 2kts
22-Apr-18 16:38 39.852740 -104.671656 86 5443ft 0kts
22-Apr-18 16:39 39.852743 -104.671757 89 5443ft 0kts
22-Apr-18 16:40 39.852743 -104.671757 89 5443ft 0kts
22-Apr-18 16:41 39.852730 -104.667541 90 5443ft 20kts
22-Apr-18 16:42 39.852939 -104.664436 89 5443ft 0kts
22-Apr-18 16:43 39.852936 -104.663539 90 5443ft 12kts
22-Apr-18 16:44 39.848854 -104.662294 181 5443ft 22kts
22-Apr-18 16:45 39.842892 -104.662382 180 5443ft 20kts
22-Apr-18 16:46 39.836742 -104.662458 179 5443ft 21kts
22-Apr-18 16:47 39.829839 -104.662548 180 5443ft 17kts
22-Apr-18 16:48 39.828425 -104.661833 92 5443ft 0kts
22-Apr-18 16:49 39.828425 -104.661833 92 5443ft 0kts
22-Apr-18 16:50 39.831132 -104.660357 0 5443ft 63kts
22-Apr-18 16:51 39.874487 -104.661066 343 7100ft 186kts
22-Apr-18 16:52 39.902852 -104.730436 289 8814ft 271kts
22-Apr-18 16:53 39.926418 -104.832252 289 11340ft 320kts
22-Apr-18 16:54 39.944833 -104.950467 275 13940ft 351kts
22-Apr-18 16:55 39.956791 -105.078095 279 16519ft 365kts
22-Apr-18 16:56 39.972071 -105.211056 280 18934ft 377kts
22-Apr-18 16:57 39.984644 -105.348500 269 21136ft 389kts
22-Apr-18 16:58 39.980255 -105.490622 269 23134ft 398kts
22-Apr-18 16:59 39.975875 -105.635985 270 24961ft 405kts
22-Apr-18 17:00 39.972561 -105.781401 270 26604ft 412kts
22-Apr-18 17:01 39.975203 -105.931111 275 28128ft 416kts
22-Apr-18 17:02 39.983559 -106.082448 275 29502ft 422kts
22-Apr-18 17:03 39.991856 -106.236408 275 30740ft 428kts
22-Apr-18 17:04 40.000003 -106.391434 275 32093ft 427kts
22-Apr-18 17:05 40.007675 -106.543827 274 33507ft 421kts
22-Apr-18 17:06 40.014976 -106.694150 273 34722ft 418kts
22-Apr-18 17:07 40.022091 -106.844518 273 35823ft 416kts
22-Apr-18 17:08 40.028998 -106.994661 272 36261ft 414kts
22-Apr-18 17:09 40.035696 -107.144462 272 36265ft 416kts
22-Apr-18 17:10 40.042225 -107.294904 272 36264ft 415kts
22-Apr-18 17:11 40.048542 -107.444957 272 36242ft 415kts
22-Apr-18 17:12 40.054522 -107.591453 272 36232ft 415kts
22-Apr-18 17:13 40.060408 -107.740292 272 36235ft 415kts
22-Apr-18 17:14 40.066152 -107.890433 272 36241ft 415kts
22-Apr-18 17:15 40.072741 -108.040784 272 36240ft 415kts
22-Apr-18 17:16 40.079514 -108.190688 272 36236ft 415kts
22-Apr-18 17:17 40.086085 -108.341164 272 36235ft 415kts
22-Apr-18 17:18 40.092434 -108.491084 272 36235ft 415kts
22-Apr-18 17:19 40.098599 -108.641315 272 36209ft 415kts
22-Apr-18 17:20 40.104357 -108.786101 272 36174ft 415kts
22-Apr-18 17:21 40.110135 -108.936214 272 36168ft 415kts
22-Apr-18 17:22 40.115741 -109.086835 271 36167ft 415kts
22-Apr-18 17:23 40.121152 -109.237527 271 36163ft 415kts
22-Apr-18 17:24 40.126351 -109.387770 271 36162ft 415kts
22-Apr-18 17:25 40.131358 -109.538103 271 36162ft 415kts
22-Apr-18 17:26 40.135615 -109.670737 270 36164ft 415kts
22-Apr-18 17:27 40.139934 -109.810380 270 36167ft 416kts
22-Apr-18 17:28 40.144407 -109.961300 270 35338ft 415kts
22-Apr-18 17:29 40.148666 -110.111402 270 34385ft 411kts
22-Apr-18 17:30 40.148085 -110.259523 268 33513ft 405kts
22-Apr-18 17:31 40.146824 -110.403609 268 31959ft 390kts
22-Apr-18 17:32 40.145444 -110.542292 268 30232ft 376kts
22-Apr-18 17:33 40.143994 -110.672735 267 28588ft 363kts
22-Apr-18 17:34 40.142379 -110.804856 267 26894ft 351kts
22-Apr-18 17:35 40.140708 -110.930129 267 25267ft 340kts
22-Apr-18 17:36 40.138966 -111.051091 267 23671ft 329kts
22-Apr-18 17:37 40.137152 -111.168645 267 22113ft 319kts
22-Apr-18 17:38 40.135171 -111.290010 267 20248ft 341kts
22-Apr-18 17:39 40.132981 -111.413833 267 18111ft 342kts
22-Apr-18 17:40 40.131090 -111.537081 274 16188ft 335kts
22-Apr-18 17:41 40.165516 -111.643028 294 16102ft 325kts
22-Apr-18 17:42 40.205053 -111.750317 293 16102ft 325kts
22-Apr-18 17:43 40.244385 -111.857288 293 16103ft 325kts
22-Apr-18 17:44 40.293489 -111.954602 327 16117ft 332kts
22-Apr-18 17:45 40.368859 -112.011437 327 15743ft 307kts
22-Apr-18 17:46 40.447587 -112.053630 353 14509ft 324kts
22-Apr-18 17:47 40.537188 -112.065310 353 12826ft 318kts
22-Apr-18 17:48 40.623031 -112.076766 353 11424ft 305kts
22-Apr-18 17:49 40.706229 -112.086691 353 11069ft 305kts
22-Apr-18 17:50 40.785231 -112.095924 353 11068ft 272kts
22-Apr-18 17:51 40.858367 -112.104596 353 11074ft 257kts
22-Apr-18 17:52 40.928571 -112.112930 353 10133ft 252kts
22-Apr-18 17:53 40.981080 -112.074993 89 9316ft 238kts
22-Apr-18 17:54 40.944940 -112.014981 137 8294ft 210kts
22-Apr-18 17:55 40.949671 -111.943900 52 7797ft 206kts
22-Apr-18 17:56 41.003382 -111.933070 350 7578ft 205kts
22-Apr-18 17:57 41.020804 -111.993444 261 7581ft 191kts
22-Apr-18 17:58 40.979703 -112.023204 171 7577ft 197kts
22-Apr-18 17:59 40.927864 -112.013152 177 6320ft 182kts
22-Apr-18 18:00 40.878910 -112.008047 177 5527ft 169kts
22-Apr-18 18:01 40.837172 -112.002686 175 4843ft 150kts
22-Apr-18 18:02 40.797694 -111.998143 175 4236ft 129kts
22-Apr-18 18:03 40.784789 -111.995662 138 4236ft 9kts
22-Apr-18 18:04 40.784344 -111.994921 114 4236ft 12kts
22-Apr-18 18:05 40.786561 -111.992418 6 4236ft 14kts
22-Apr-18 18:06 40.787729 -111.987662 67 4236ft 12kts
22-Apr-18 18:07 40.788436 -111.985426 71 4236ft 1kts
22-Apr-18 18:08 40.788449 -111.985375 71 4236ft 0kts
22-Apr-18 18:09 40.788449 -111.985375 71 4236ft 0kts
22-Apr-18 18:10 40.788449 -111.985375 71 4236ft 0kts

Navigation Log

Ident Type
Flight plan parsing failed, navigation log unavailable